ASN logo
Last updated: 17 October 2021
Statuts:Enquête Officielle
Date:jeudi 28 janvier 2016
Heure:ca 16:30
Type/Sous-type:Silhouette image of generic MD83 model; specific model in this crash may look slightly different
McDonnell Douglas MD-83
Compagnie:Zagros Air
Immatriculation: EP-ZAB
Numéro de série: 49930/1720
Année de Fabrication: 1990
Heures de vol:51446
Cycles:30255
Moteurs: 2 Pratt & Whitney JT8D-219
Equipage:victimes: 0 / à bord: 8
Passagers:victimes: 0 / à bord: 154
Total:victimes: 0 / à bord: 162
Dégats de l'appareil: Substantiels
Conséquences: Written off (damaged beyond repair)
Lieu de l'accident:Mashhad Airport (MHD) (   Iran)
Phase de vol: A l'atterrissage (LDG)
Nature:Transport de Passagers Nat.
Aéroport de départ:Isfahan-Shahid Beheshti Airport (IFN/OIFM), Iran
Aéroport de destination:Mashhad Airport (MHD/OIMM), Iran
Numéro de vol:ZV4010
Détails:
The MD-83 aircraft sustained substantial damage in a runway excursion accident upon landing on runway 31R at Mashhad Airport (MHD), Iran.
The aircraft came to rest on the left side of runway 31R, 2200 m from the threshold.

Probable Cause:

Cause (translated from Farsi):
Pilot Error in unusual use of engine reversers contrary to operating instructions and carelessness and insistance of the pilot to continue approach and landing, in spite of instantaneous weather changes and minimum weather conditions.

Accident investigation:
cover
Investigating agency: AAIB Iran
Status: Investigation completed
Duration: 1 year
Accident number: 941108 EPZAB
Download report: Final report

Sources:
» donya-e-eqtesad.com
» FARS

METAR Weather report:
11:30 UTC / 15:00 local time:
OIMM 281130Z 10010KT 1300 R13/1700D R31/P2000U -SN BR BKN007 OVC070 01/01 Q1016 A3001

12:00 UTC / 15:30 local time:
OIMM 281200Z 10010KT 2500 -SN BR BKN007 OVC070 01/00 Q1016 A3001

12:30 UTC / 16:00 local time:
OIMM 281230Z 14006KT 4000 -SG OVC008 01/01 Q1016 A3001

13:00 UTC / 16:30 local time:
OIMM 281300Z 15008KT 2000 -SG BR OVC008 00/00 Q1016 A3002

13:30 UTC / 17:00 local time:
OIMM 281330Z 15012KT 1400 R13/P2000N R31/P2000U -SG BR OVC008 00/00 Q1016 A3002

14:00 UTC / 17:30 local time:
OIMM 281400Z 13012KT 0800 R13/1600N R31/1300U FG SG OVC008 M00/M00 Q1017 A3003


Photos

photo of MD-83-HB-ISZ
accident date: 28-01-2016
type: McDonnell Douglas MD-83
registration: HB-ISZ
 

Video, social media

Plan
Ce plan montre l'aéroport de départ ainsi que la supposée destination du vol. La ligne fixe reliant les deux aéroports n'est pas le plan de vol exact.
La distance entre Isfahan-Shahid Beheshti Airport et Mashhad Airport est de 806 km (504 miles).

Les informations ci-dessus ne représentent pas l'opinion de la 'Flight Safety Foundation' ou de 'Aviation Safety Network' sur les causes de l'accident. Ces informations prélimimaires sont basées sur les faits tel qu'ils sont connus à ce jour.
languages: languages

Share

MD-80

  • 1194 built
  • 40ème loss
» safety profile

 Iran
  • le accident 64ème le plus grave (à ce moment là)
  • le accident 68ème le plus grave (en ce moment)
» safety profile